# Tabular Observed and Forecast Hydrograph Information
#
# Location: Steamboat Creek - Sparks at Cleanwater Way (SCWN2)
#
# File Generation Time: 05/09/2026 at 07:27 AM PDT
# Data Interval: 1 Hour
#
# Most Recent Date & Time of Maximum Observed: 05/05/2026 at 03:00 AM PDT
# Maximum Observed Stage: 5.53 Feet
# Maximum Observed Flow: 101 cfs
#
# Earliest Date & Time of Maximum Forecast: 05/09/2026 at 08:00 AM PDT
# Maximum Forecast Stage: 4.84 Feet
# Maximum Forecast Flow: 51 cfs
#
# OBSERVED
#
# Date & Time (Local) Stage (Feet) Flow (cfs) Trend Observed Status
# ---------------------------------------------------------------------------------
05/04/2026 07 AM PDT 4.67 41 Not Applicable
05/04/2026 08 AM PDT 4.68 42 + Not Applicable
05/04/2026 09 AM PDT 4.69 42 + Not Applicable
05/04/2026 10 AM PDT 4.70 43 + Not Applicable
05/04/2026 11 AM PDT 4.70 43 0 Not Applicable
05/04/2026 12 PM PDT 4.71 43 + Not Applicable
05/04/2026 01 PM PDT 4.71 43 0 Not Applicable
05/04/2026 02 PM PDT 4.73 45 + Not Applicable
05/04/2026 03 PM PDT 4.73 45 0 Not Applicable
05/04/2026 04 PM PDT 4.73 45 0 Not Applicable
05/04/2026 05 PM PDT 4.74 45 + Not Applicable
05/04/2026 06 PM PDT 4.74 45 0 Not Applicable
05/04/2026 07 PM PDT 4.76 46 + Not Applicable
05/04/2026 08 PM PDT 4.78 48 + Not Applicable
05/04/2026 09 PM PDT 4.82 50 + Not Applicable
05/04/2026 10 PM PDT 4.87 53 + Not Applicable
05/04/2026 11 PM PDT 4.99 61 + Not Applicable
05/05/2026 12 AM PDT 5.19 75 + Not Applicable
05/05/2026 01 AM PDT 5.39 90 + Not Applicable
05/05/2026 02 AM PDT 5.50 98 + Not Applicable
05/05/2026 03 AM PDT 5.53 101 + Not Applicable
05/05/2026 04 AM PDT 5.51 99 - Not Applicable
05/05/2026 05 AM PDT 5.47 96 - Not Applicable
05/05/2026 06 AM PDT 5.42 92 - Not Applicable
05/05/2026 07 AM PDT 5.37 88 - Not Applicable
05/05/2026 08 AM PDT 5.33 85 - Not Applicable
05/05/2026 09 AM PDT 5.29 82 - Not Applicable
05/05/2026 10 AM PDT 5.26 80 - Not Applicable
05/05/2026 11 AM PDT 5.23 78 - Not Applicable
05/05/2026 12 PM PDT 5.21 76 - Not Applicable
05/05/2026 01 PM PDT 5.20 75 - Not Applicable
05/05/2026 02 PM PDT 5.19 75 - Not Applicable
05/05/2026 03 PM PDT 5.17 73 - Not Applicable
05/05/2026 04 PM PDT 5.16 72 - Not Applicable
05/05/2026 05 PM PDT 5.15 72 - Not Applicable
05/05/2026 06 PM PDT 5.14 71 - Not Applicable
05/05/2026 07 PM PDT 5.14 71 0 Not Applicable
05/05/2026 08 PM PDT 5.13 70 - Not Applicable
05/05/2026 09 PM PDT 5.12 70 - Not Applicable
05/05/2026 10 PM PDT 5.11 69 - Not Applicable
05/05/2026 11 PM PDT 5.10 68 - Not Applicable
05/06/2026 12 AM PDT 5.09 68 - Not Applicable
05/06/2026 01 AM PDT 5.09 68 0 Not Applicable
05/06/2026 02 AM PDT 5.08 67 - Not Applicable
05/06/2026 03 AM PDT 5.07 66 - Not Applicable
05/06/2026 04 AM PDT 5.06 65 - Not Applicable
05/06/2026 05 AM PDT 5.06 65 0 Not Applicable
05/06/2026 06 AM PDT 5.05 65 - Not Applicable
05/06/2026 07 AM PDT 5.05 65 0 Not Applicable
05/06/2026 08 AM PDT 5.04 64 - Not Applicable
05/06/2026 09 AM PDT 5.04 64 0 Not Applicable
05/06/2026 10 AM PDT 5.05 65 + Not Applicable
05/06/2026 11 AM PDT 5.05 65 0 Not Applicable
05/06/2026 12 PM PDT 5.05 65 0 Not Applicable
05/06/2026 01 PM PDT 5.06 65 + Not Applicable
05/06/2026 02 PM PDT 5.05 65 - Not Applicable
05/06/2026 03 PM PDT 5.05 65 0 Not Applicable
05/06/2026 04 PM PDT 5.05 65 0 Not Applicable
05/06/2026 05 PM PDT 5.05 65 0 Not Applicable
05/06/2026 06 PM PDT 5.04 64 - Not Applicable
05/06/2026 07 PM PDT 5.03 63 - Not Applicable
05/06/2026 08 PM PDT 5.03 63 0 Not Applicable
05/06/2026 09 PM PDT 5.02 63 - Not Applicable
05/06/2026 10 PM PDT 5.01 62 - Not Applicable
05/06/2026 11 PM PDT 5.00 61 - Not Applicable
05/07/2026 12 AM PDT 4.99 61 - Not Applicable
05/07/2026 01 AM PDT 4.99 61 0 Not Applicable
05/07/2026 02 AM PDT 4.97 59 - Not Applicable
05/07/2026 03 AM PDT 4.96 59 - Not Applicable
05/07/2026 04 AM PDT 4.95 58 - Not Applicable
05/07/2026 05 AM PDT 4.95 58 0 Not Applicable
05/07/2026 06 AM PDT 4.94 57 - Not Applicable
05/07/2026 07 AM PDT 4.93 57 - Not Applicable
05/07/2026 08 AM PDT 4.93 57 0 Not Applicable
05/07/2026 09 AM PDT 4.93 57 0 Not Applicable
05/07/2026 10 AM PDT 4.94 57 + Not Applicable
05/07/2026 11 AM PDT 4.94 57 0 Not Applicable
05/07/2026 12 PM PDT 4.95 58 + Not Applicable
05/07/2026 01 PM PDT 4.96 59 + Not Applicable
05/07/2026 02 PM PDT 4.97 59 + Not Applicable
05/07/2026 03 PM PDT 4.98 60 + Not Applicable
05/07/2026 04 PM PDT 4.98 60 0 Not Applicable
05/07/2026 05 PM PDT 4.97 59 - Not Applicable
05/07/2026 06 PM PDT 4.96 59 - Not Applicable
05/07/2026 07 PM PDT 4.96 59 0 Not Applicable
05/07/2026 08 PM PDT 4.95 58 - Not Applicable
05/07/2026 09 PM PDT 4.94 57 - Not Applicable
05/07/2026 10 PM PDT 4.94 57 0 Not Applicable
05/07/2026 11 PM PDT 4.94 57 0 Not Applicable
05/08/2026 12 AM PDT 4.93 57 - Not Applicable
05/08/2026 01 AM PDT 4.92 56 - Not Applicable
05/08/2026 02 AM PDT 4.91 56 - Not Applicable
05/08/2026 03 AM PDT 4.91 56 0 Not Applicable
05/08/2026 04 AM PDT 4.90 55 - Not Applicable
05/08/2026 05 AM PDT 4.89 54 - Not Applicable
05/08/2026 06 AM PDT 4.89 54 0 Not Applicable
05/08/2026 07 AM PDT 4.89 54 0 Not Applicable
05/08/2026 08 AM PDT 4.89 54 0 Not Applicable
05/08/2026 09 AM PDT 4.89 54 0 Not Applicable
05/08/2026 10 AM PDT 4.89 54 0 Not Applicable
05/08/2026 11 AM PDT 4.90 55 + Not Applicable
05/08/2026 12 PM PDT 4.91 56 + Not Applicable
05/08/2026 01 PM PDT 4.92 56 + Not Applicable
05/08/2026 02 PM PDT 4.92 56 0 Not Applicable
05/08/2026 03 PM PDT 4.92 56 0 Not Applicable
05/08/2026 04 PM PDT 4.91 56 - Not Applicable
05/08/2026 05 PM PDT 4.90 55 - Not Applicable
05/08/2026 06 PM PDT 4.90 55 0 Not Applicable
05/08/2026 07 PM PDT 4.90 55 0 Not Applicable
05/08/2026 08 PM PDT 4.90 55 0 Not Applicable
05/08/2026 09 PM PDT 4.90 55 0 Not Applicable
05/08/2026 10 PM PDT 4.89 54 - Not Applicable
05/08/2026 11 PM PDT 4.89 54 0 Not Applicable
05/09/2026 12 AM PDT 4.88 54 - Not Applicable
05/09/2026 01 AM PDT 4.87 53 - Not Applicable
05/09/2026 02 AM PDT 4.86 52 - Not Applicable
05/09/2026 03 AM PDT 4.85 52 - Not Applicable
05/09/2026 04 AM PDT 4.85 52 0 Not Applicable
05/09/2026 05 AM PDT 4.85 52 0 Not Applicable
05/09/2026 06 AM PDT 4.84 51 - Not Applicable
05/09/2026 07 AM PDT 4.84 51 0 Not Applicable
#
# FORECAST
#
# Date & Time (Local) Stage (Feet) Flow (cfs) Trend Forecast Status
# ---------------------------------------------------------------------------------
05/09/2026 08 AM PDT 4.84 51 Not Applicable
05/09/2026 09 AM PDT 4.84 51 0 Not Applicable
05/09/2026 10 AM PDT 4.84 51 0 Not Applicable
05/09/2026 11 AM PDT 4.83 51 - Not Applicable
05/09/2026 12 PM PDT 4.82 50 - Not Applicable
05/09/2026 01 PM PDT 4.82 50 0 Not Applicable
05/09/2026 02 PM PDT 4.81 49 - Not Applicable
05/09/2026 03 PM PDT 4.80 49 - Not Applicable
05/09/2026 04 PM PDT 4.80 49 0 Not Applicable
05/09/2026 05 PM PDT 4.79 48 - Not Applicable
05/09/2026 06 PM PDT 4.79 48 0 Not Applicable
05/09/2026 07 PM PDT 4.78 48 - Not Applicable
05/09/2026 08 PM PDT 4.77 47 - Not Applicable
05/09/2026 09 PM PDT 4.77 47 0 Not Applicable
05/09/2026 10 PM PDT 4.76 46 - Not Applicable
05/09/2026 11 PM PDT 4.76 46 0 Not Applicable
05/10/2026 12 AM PDT 4.75 46 - Not Applicable
05/10/2026 01 AM PDT 4.74 45 - Not Applicable
05/10/2026 02 AM PDT 4.74 45 0 Not Applicable
05/10/2026 03 AM PDT 4.73 45 - Not Applicable
05/10/2026 04 AM PDT 4.73 45 0 Not Applicable
05/10/2026 05 AM PDT 4.72 44 - Not Applicable
05/10/2026 06 AM PDT 4.71 43 - Not Applicable
05/10/2026 07 AM PDT 4.71 43 0 Not Applicable
05/10/2026 08 AM PDT 4.70 43 - Not Applicable
05/10/2026 09 AM PDT 4.70 43 0 Not Applicable
05/10/2026 10 AM PDT 4.69 42 - Not Applicable
05/10/2026 11 AM PDT 4.68 42 - Not Applicable
05/10/2026 12 PM PDT 4.67 41 - Not Applicable
05/10/2026 01 PM PDT 4.67 41 0 Not Applicable
05/10/2026 02 PM PDT 4.66 41 - Not Applicable
05/10/2026 03 PM PDT 4.66 41 0 Not Applicable
05/10/2026 04 PM PDT 4.65 40 - Not Applicable
05/10/2026 05 PM PDT 4.64 39 - Not Applicable
05/10/2026 06 PM PDT 4.64 39 0 Not Applicable
05/10/2026 07 PM PDT 4.63 39 - Not Applicable
05/10/2026 08 PM PDT 4.62 38 - Not Applicable
05/10/2026 09 PM PDT 4.62 38 0 Not Applicable
05/10/2026 10 PM PDT 4.61 38 - Not Applicable
05/10/2026 11 PM PDT 4.60 37 - Not Applicable
05/11/2026 12 AM PDT 4.60 37 0 Not Applicable
05/11/2026 01 AM PDT 4.59 37 - Not Applicable
05/11/2026 02 AM PDT 4.58 36 - Not Applicable
05/11/2026 03 AM PDT 4.58 36 0 Not Applicable
05/11/2026 04 AM PDT 4.57 36 - Not Applicable
05/11/2026 05 AM PDT 4.56 35 - Not Applicable
05/11/2026 06 AM PDT 4.56 35 0 Not Applicable
05/11/2026 07 AM PDT 4.55 35 - Not Applicable
05/11/2026 08 AM PDT 4.54 34 - Not Applicable
05/11/2026 09 AM PDT 4.54 34 0 Not Applicable
05/11/2026 10 AM PDT 4.53 34 - Not Applicable
05/11/2026 11 AM PDT 4.52 33 - Not Applicable
05/11/2026 12 PM PDT 4.52 33 0 Not Applicable
05/11/2026 01 PM PDT 4.51 33 - Not Applicable
05/11/2026 02 PM PDT 4.50 32 - Not Applicable
05/11/2026 03 PM PDT 4.50 32 0 Not Applicable
05/11/2026 04 PM PDT 4.49 32 - Not Applicable
05/11/2026 05 PM PDT 4.48 31 - Not Applicable
05/11/2026 06 PM PDT 4.47 31 - Not Applicable
05/11/2026 07 PM PDT 4.47 31 0 Not Applicable
05/11/2026 08 PM PDT 4.46 30 - Not Applicable
05/11/2026 09 PM PDT 4.45 29 - Not Applicable
05/11/2026 10 PM PDT 4.45 29 0 Not Applicable
05/11/2026 11 PM PDT 4.44 29 - Not Applicable
05/12/2026 12 AM PDT 4.43 28 - Not Applicable
05/12/2026 01 AM PDT 4.43 28 0 Not Applicable
05/12/2026 02 AM PDT 4.42 28 - Not Applicable
05/12/2026 03 AM PDT 4.41 27 - Not Applicable
05/12/2026 04 AM PDT 4.40 27 - Not Applicable
05/12/2026 05 AM PDT 4.40 27 0 Not Applicable
05/12/2026 06 AM PDT 4.39 26 - Not Applicable
05/12/2026 07 AM PDT 4.39 26 0 Not Applicable
05/12/2026 08 AM PDT 4.39 26 0 Not Applicable
05/12/2026 09 AM PDT 4.39 26 0 Not Applicable
05/12/2026 10 AM PDT 4.39 26 0 Not Applicable
05/12/2026 11 AM PDT 4.38 26 - Not Applicable
05/12/2026 12 PM PDT 4.38 26 0 Not Applicable
05/12/2026 01 PM PDT 4.38 26 0 Not Applicable
05/12/2026 02 PM PDT 4.38 26 0 Not Applicable
05/12/2026 03 PM PDT 4.38 26 0 Not Applicable
05/12/2026 04 PM PDT 4.38 26 0 Not Applicable
05/12/2026 05 PM PDT 4.38 26 0 Not Applicable
05/12/2026 06 PM PDT 4.38 26 0 Not Applicable
05/12/2026 07 PM PDT 4.38 26 0 Not Applicable
05/12/2026 08 PM PDT 4.38 26 0 Not Applicable
05/12/2026 09 PM PDT 4.38 26 0 Not Applicable
05/12/2026 10 PM PDT 4.38 26 0 Not Applicable
05/12/2026 11 PM PDT 4.37 26 - Not Applicable
05/13/2026 12 AM PDT 4.37 26 0 Not Applicable
05/13/2026 01 AM PDT 4.37 26 0 Not Applicable
05/13/2026 02 AM PDT 4.37 26 0 Not Applicable
05/13/2026 03 AM PDT 4.37 26 0 Not Applicable
05/13/2026 04 AM PDT 4.37 26 0 Not Applicable
05/13/2026 05 AM PDT 4.37 26 0 Not Applicable
05/13/2026 06 AM PDT 4.37 26 0 Not Applicable
05/13/2026 07 AM PDT 4.37 26 0 Not Applicable
05/13/2026 08 AM PDT 4.37 26 0 Not Applicable
05/13/2026 09 AM PDT 4.37 26 0 Not Applicable
05/13/2026 10 AM PDT 4.36 25 - Not Applicable
05/13/2026 11 AM PDT 4.36 25 0 Not Applicable
05/13/2026 12 PM PDT 4.36 25 0 Not Applicable
05/13/2026 01 PM PDT 4.36 25 0 Not Applicable
05/13/2026 02 PM PDT 4.36 25 0 Not Applicable
05/13/2026 03 PM PDT 4.36 25 0 Not Applicable
05/13/2026 04 PM PDT 4.36 25 0 Not Applicable
05/13/2026 05 PM PDT 4.36 25 0 Not Applicable
05/13/2026 06 PM PDT 4.36 25 0 Not Applicable
05/13/2026 07 PM PDT 4.36 25 0 Not Applicable
05/13/2026 08 PM PDT 4.35 25 - Not Applicable
05/13/2026 09 PM PDT 4.35 25 0 Not Applicable
05/13/2026 10 PM PDT 4.35 25 0 Not Applicable
05/13/2026 11 PM PDT 4.35 25 0 Not Applicable
05/14/2026 12 AM PDT 4.35 25 0 Not Applicable
05/14/2026 01 AM PDT 4.35 25 0 Not Applicable
05/14/2026 02 AM PDT 4.35 25 0 Not Applicable
05/14/2026 03 AM PDT 4.35 25 0 Not Applicable
05/14/2026 04 AM PDT 4.35 25 0 Not Applicable
05/14/2026 05 AM PDT 4.35 25 0 Not Applicable
#
# NOTE 1: Stages are rounded to the nearest hundredth (.01) of a foot.
# NOTE 2: Flows are rounded to the nearest (1) cfs.
# NOTE 3: Trends are determined using hourly change in unrounded stage and flow.
# NOTE 4: Maximum Values are determined using unrounded stage and flow.
|